Logo AVAMET
Benvolgut visitant, si us plau, ingressa Recuperar contrasenya
AVAMET paisatges

Inforatge Xeraco centre

Dades diàries. Acumulats / Últims 30 dies disponibles

Data Temperatura (°C) Humitat rel. (%) Pressió rel. (hPa) Vent (km/h) Precipitació
Mínima Mitjana Màxima Amplitud
tèrmica
Mínima Mitjana Màxima Mínima Mitjana Màxima Predom. Mitjana Ràfega
màxima
Total
(mm)
Índex-n
Mínima Mitjana Màxima Mínima Mitjana Màxima n
0 a 1
P0 max
mm 5'
Dades mensuals acumulades fins l'últim dia disponible
06/2020 19,4 19,5 19,5 23,1 27,2 27,4 27,6 8,2 54 76 86 1.013 1.016 1.017   5,6 35,4 0,0
Dades anuals acumulades fins l'últim dia disponible
2020 3,8 12,7 20,7 16,3 11,8 20,2 32,6 28,8 19 73 99 1.001 1.021 1.036   6,3 91,7 357,6
Últims 30 dies disponibles
02-06-2020 19,4     23,2     27,6 8,2 63 77 86 1.013 1.016 1.017 ENE 5,8 35,4 0,0
01-06-2020 19,5     23,0     27,2 7,7 54 75 85 1.015 1.016 1.017 ENE 5,3 24,1 0,0
31-05-2020 18,4     22,6     26,3 7,9 51 71 85 1.012 1.014 1.016 SSE 5,3 25,7 0,0
30-05-2020 18,2     22,5     26,4 8,2 52 68 84 1.013 1.016 1.018 ENE 5,5 24,1 0,0
29-05-2020 17,1     22,6     27,2 10,1 45 63 84 1.014 1.018 1.023 SE 5,3 30,6 0,0
28-05-2020 18,9     21,7     24,8 5,9 60 77 88 1.022 1.025 1.028 ENE 4,8 24,1 0,0
27-05-2020 17,4     21,8     26,2 8,8 49 71 85 1.025 1.026 1.028 ENE 4,7 30,6 0,0
26-05-2020 17,6     21,5     25,2 7,6 57 74 86 1.025 1.027 1.028 ENE 3,9 25,7 0,0
25-05-2020 17,6     20,7     23,7 6,1 65 78 87 1.025 1.027 1.028 ENE 3,4 20,9 0,0
24-05-2020 19,3     21,8     24,0 4,7 72 82 90 1.027 1.028 1.029 ENE 6,0 25,7 0,0
23-05-2020 18,9     24,0     29,8 10,9 45 69 82 1.023 1.025 1.027 ENE 3,5 20,9 0,0
22-05-2020 18,9     24,1     29,1 10,2 49 70 89 1.021 1.023 1.025 ENE 3,1 19,3 0,0
21-05-2020 17,6     23,3     29,6 12,0 53 74 91 1.018 1.020 1.021 ENE 2,9 19,3 0,0
20-05-2020 17,8     23,1     27,6 9,8 48 69 90 1.015 1.016 1.018 ENE 3,4 19,3 0,0
19-05-2020 16,2     23,2     30,1 13,9 41 59 83 1.016 1.018 1.021 ENE 2,4 17,7 0,0
18-05-2020 15,4     21,2     26,9 11,5 43 68 87 1.019 1.021 1.023 ENE 2,7 22,5 0,0
17-05-2020 14,9     19,1     22,8 7,9 64 79 90 1.020 1.021 1.023 ENE 3,4 22,5 0,0
16-05-2020 12,9     17,4     20,6 7,7 69 81 97 1.015 1.018 1.020 W 5,3 54,7 32,6 0,51 10,40
15-05-2020 14,3     18,0     21,2 6,9 54 71 88 1.011 1.013 1.016 ENE 3,7 25,7 0,0
14-05-2020 14,2     17,3     21,1 6,9 50 70 92 1.003 1.006 1.011 W 6,0 49,9 17,4 0,66 4,80
13-05-2020 16,1     20,4     24,7 8,6 42 53 66 1.005 1.007 1.008 W 7,1 32,2 0,2
12-05-2020 19,0     21,2     24,7 5,7 48 64 89 1.007 1.010 1.012 ENE 4,7 29,0 0,0
11-05-2020 18,3     22,7     28,1 9,8 35 48 62 1.008 1.009 1.012 W 9,8 43,5 0,0
10-05-2020 17,1     21,1     25,9 8,8 32 61 87 1.005 1.007 1.010 W 9,3 48,3 0,2
09-05-2020 17,1     20,1     23,3 6,2 69 81 87 1.010 1.013 1.017 ENE 4,5 24,1 0,0
08-05-2020 17,9     20,2     22,7 4,8 72 83 89 1.016 1.018 1.019 ENE 6,4 33,8 0,0
07-05-2020 17,1     20,7     25,1 8,0 43 79 91 1.018 1.019 1.021 ENE 3,9 24,1 0,0
06-05-2020 17,1     21,3     25,5 8,4 56 79 93 1.016 1.017 1.019 ENE 2,9 22,5 0,0
05-05-2020 16,9     21,1     26,5 9,6 56 81 92 1.014 1.015 1.016 ENE 2,9 17,7 0,0
04-05-2020 16,0     19,8     23,1 7,1 72 83 92 1.015 1.017 1.018 ENE 3,1 19,3 0,0
Últims 13 mesos disponibles
05/2020 12,9 17,3 20,7 21,6 20,6 25,9 32,6 19,7 47 70 83 1.006 1.018 1.028 ENE 4,8 54,7 50,4
04/2020 10,6 13,5 19,4 16,4 14,6 19,8 27,8 17,2 43 78 93 1.007 1.017 1.027 W 5,0 48,3 58,6
03/2020 7,4 11,9 18,3 14,9 11,8 18,4 24,9 17,5 41 72 94 1.008 1.018 1.028 W 8,6 91,7 112,2
02/2020 7,5 11,2 17,2 15,7 14,3 20,5 27,2 19,7 38 69 89 1.015 1.026 1.034 W 5,7 57,9 2,0
01/2020 3,8 8,9 16,8 12,3 12,4 16,1 22,5 18,7 54 75 97 1.016 1.026 1.034 W 7,2 88,5 134,4
12/2019 6,1 12,0 20,2 15,0 14,0 18,5 26,3 20,2 47 69 91 1.003 1.020 1.034 W 10,0 95,0 214,0
11/2019 8,7 13,5 22,7 16,7 15,6 20,4 27,9 19,2 43 55 75 1.000 1.012 1.019 W 12,2 72,4 12,4
10/2019 13,5 17,4 21,4 21,2 17,1 25,0 32,9 19,4 41 66 85 1.009 1.017 1.023 W 5,0 59,5 44,6
09/2019 15,3 21,0 24,3 24,4 23,3 27,6 35,3 20,0 42 74 90 1.011 1.019 1.025 S 6,2 77,8 58,6
08/2019 19,2 23,7 27,3 26,8 24,9 30,4 37,1 17,9 53 74 82 1.011 1.016 1.021 SSE 5,6 55,6 5,2
07/2019 21,3 23,9 26,4 27,0 27,1 30,6 39,2 17,9 43 70 82 1.006 1.015 1.022 SSE 6,3 56,3 0,2
06/2019 14,6 18,9 22,7 22,8 20,3 26,8 33,0 18,4 37 68 84 1.009 1.016 1.023 SSE 6,4 50,0 0,2
05/2019 11,2 15,6 23,2 19,2 17,9 23,5 31,8 20,6 47 68 82 1.006 1.016 1.025 SSE 6,2 56,3 9,0
Tots els anys disponibles
2019 4,2 15,6 27,3 19,2 11,6 22,9 39,2 35,0 30 66 94 996 1.018 1.035 SSE 7,2 95,0 597,8
2018 4,6 15,8 27,7 19,0 8,4 22,6 37,1 32,5 35 67 95 994 1.017 1.036 SSE 6,5 76,0 924,6
2017 1,4 16,3 26,9 19,8 9,6 23,3 39,0 37,6 33 68 93 1.002 1.017 1.038 SE 0,0 97,0 399,0
2016 4,8 16,0 25,6 19,4 12,4 22,8 39,6 34,8 29 66 93 993 1.017 1.036 93,0 543,9
Temperatura (°C)
Humitat relativa (%)
Velocitat del vent i ràfega màxima (km/h)
Direcció del vent (°)
Pressió (hPa)
Precipitació (mm)
Nota sobre les dades: s'avisa a l'usuari de la provisionalitat i no oficialitat d'aquestes dades
Logo AVAMET blanc
Web allotjada a Sollutia
Llicència de Creative CommonsLa web d'AVAMET i els seus continguts estan subjectes a una llicència de
Reconeixement - No Comercial - Compartir igual
Últimes estacions: Biar - IES Biar (Soci), Xodos - la Vega (Soci), la Vall d'Alba - Centre (Ajuntament soci), Chera (Ajuntament soci) - - -